Time;durP1;ratioP1;P1;durP2;ratioP2;P2;SDS_P1;SDS_P2;PMS_P1;PMS_P2;Temp;Humidity;BMP_temperature;BMP_pressure;BME280_temperature;BME280_humidity;BME280_pressure;Samples;Min_cycle;Max_cycle;Signal;HPM_P1;HPM_P2
2021/06/14 00:02:00;;;;;;;14.63;9.38;;;16.00;96.70;;;;;;5039547;28;20482;-70
2021/06/14 00:04:25;;;;;;;14.88;9.15;;;16.00;97.00;;;;;;5039603;28;20037;-70
2021/06/14 00:06:51;;;;;;;18.60;10.23;;;15.90;97.10;;;;;;5039627;28;20492;-71
2021/06/14 00:09:21;;;;;;;20.65;11.82;;;15.90;97.20;;;;;;5039552;28;20102;-70
2021/06/14 00:11:47;;;;;;;18.85;10.60;;;15.80;97.40;;;;;;5039653;28;20073;-70
2021/06/14 00:14:13;;;;;;;16.85;9.98;;;15.80;97.70;;;;;;5039410;28;20041;-70
2021/06/14 00:16:39;;;;;;;13.95;9.27;;;15.80;97.70;;;;;;5040087;28;20033;-70
2021/06/14 00:19:06;;;;;;;13.68;8.40;;;15.80;97.80;;;;;;5039533;28;20109;-71
2021/06/14 00:21:32;;;;;;;19.80;11.35;;;15.80;97.80;;;;;;5039331;28;20069;-70
2021/06/14 00:23:58;;;;;;;16.92;11.02;;;15.80;97.80;;;;;;5039429;28;20527;-70
2021/06/14 00:26:24;;;;;;;17.13;9.75;;;15.80;98.10;;;;;;5038474;28;20358;-70
2021/06/14 00:28:50;;;;;;;16.75;9.15;;;15.70;97.80;;;;;;5039060;28;20382;-71
2021/06/14 00:31:16;;;;;;;15.68;9.18;;;15.70;97.90;;;;;;5039182;28;20477;-70
2021/06/14 00:33:42;;;;;;;17.15;9.65;;;15.70;98.00;;;;;;5039421;28;20113;-70
2021/06/14 00:36:09;;;;;;;18.15;10.27;;;15.60;98.00;;;;;;5039904;28;20033;-70
2021/06/14 00:38:36;;;;;;;17.55;9.65;;;15.60;98.20;;;;;;5035941;28;20378;-71
2021/06/14 00:41:04;;;;;;;24.55;9.68;;;15.50;98.30;;;;;;5036268;28;20049;-70
2021/06/14 00:43:29;;;;;;;12.38;8.50;;;15.50;98.40;;;;;;5034801;28;20099;-70
2021/06/14 00:45:57;;;;;;;14.05;9.18;;;15.50;98.40;;;;;;5036305;28;20045;-70
2021/06/14 00:48:22;;;;;;;17.02;8.68;;;15.50;98.30;;;;;;5036124;28;20503;-70
2021/06/14 00:50:57;;;;;;;14.70;9.35;;;15.50;98.40;;;;;;5035717;28;20037;-71
2021/06/14 00:53:24;;;;;;;14.85;7.82;;;15.50;98.30;;;;;;5035949;28;20489;-70
2021/06/14 00:55:51;;;;;;;14.32;7.78;;;15.50;98.30;;;;;;5036164;28;20042;-70
2021/06/14 00:58:18;;;;;;;11.10;7.80;;;15.50;98.20;;;;;;5036169;28;20065;-71
2021/06/14 01:00:44;;;;;;;13.90;8.05;;;15.40;98.10;;;;;;5034310;28;20038;-70
2021/06/14 01:03:11;;;;;;;12.15;7.80;;;15.40;98.30;;;;;;5035762;28;20060;-70
2021/06/14 01:05:58;;;;;;;15.65;8.60;;;15.30;98.30;;;;;;5035001;28;20037;-70
2021/06/14 01:08:26;;;;;;;12.90;8.38;;;15.30;98.60;;;;;;5035725;28;20097;-70
2021/06/14 01:10:52;;;;;;;15.05;8.43;;;15.30;98.60;;;;;;5035242;28;20034;-70
2021/06/14 01:13:37;;;;;;;11.07;8.07;;;15.20;98.50;;;;;;5036215;28;20045;-70
2021/06/14 01:16:45;;;;;;;15.85;8.75;;;15.20;98.60;;;;;;5035490;28;20087;-70
2021/06/14 01:19:41;;;;;;;13.35;8.20;;;15.20;98.80;;;;;;5035267;28;20076;-70
2021/06/14 01:22:31;;;;;;;11.57;7.85;;;15.20;98.80;;;;;;5035402;28;20045;-70
2021/06/14 01:25:12;;;;;;;11.50;8.00;;;15.10;98.80;;;;;;5035301;28;20065;-70
2021/06/14 01:27:45;;;;;;;15.30;8.10;;;15.00;98.70;;;;;;5035478;28;20038;-70
2021/06/14 01:30:15;;;;;;;14.15;8.27;;;15.00;98.70;;;;;;5034964;28;20064;-70
2021/06/14 01:32:41;;;;;;;11.02;6.97;;;15.10;98.60;;;;;;5033917;28;20037;-70
2021/06/14 01:35:10;;;;;;;10.60;7.43;;;15.00;98.60;;;;;;5035123;28;20045;-70
2021/06/14 01:37:43;;;;;;;11.52;7.38;;;15.00;98.70;;;;;;5035299;28;20029;-70
2021/06/14 01:40:10;;;;;;;13.32;7.78;;;14.90;98.70;;;;;;5035396;28;20048;-70
2021/06/14 01:42:38;;;;;;;9.05;6.55;;;14.80;98.80;;;;;;5034868;28;20048;-70
2021/06/14 01:45:05;;;;;;;13.68;8.32;;;14.80;98.90;;;;;;5035343;28;20041;-70
2021/06/14 01:47:30;;;;;;;18.25;8.43;;;14.80;98.80;;;;;;5035343;28;20050;-70
2021/06/14 01:49:57;;;;;;;10.25;7.15;;;14.80;98.80;;;;;;5034715;28;20091;-70
2021/06/14 01:52:23;;;;;;;14.02;7.65;;;14.80;98.80;;;;;;5034769;28;20043;-70
2021/06/14 01:54:51;;;;;;;12.95;7.68;;;14.80;98.80;;;;;;5035259;28;20401;-70
2021/06/14 01:57:17;;;;;;;12.35;8.10;;;14.80;98.70;;;;;;5035296;28;20061;-70
2021/06/14 01:59:45;;;;;;;13.02;7.80;;;14.80;98.60;;;;;;5034313;28;20462;-70
2021/06/14 02:02:11;;;;;;;12.38;8.10;;;14.70;98.60;;;;;;5035012;28;20046;-70
2021/06/14 02:04:41;;;;;;;12.80;7.75;;;14.70;98.50;;;;;;5034764;28;20037;-70
2021/06/14 02:07:08;;;;;;;10.15;6.95;;;14.80;98.40;;;;;;5035172;28;20037;-70
2021/06/14 02:09:34;;;;;;;13.88;7.60;;;14.70;98.40;;;;;;5034459;28;20045;-70
2021/06/14 02:12:03;;;;;;;12.80;6.93;;;14.70;98.20;;;;;;5035070;28;20041;-70
2021/06/14 02:14:32;;;;;;;11.63;7.65;;;14.70;98.30;;;;;;5034769;28;20155;-70
2021/06/14 02:17:03;;;;;;;15.63;7.43;;;14.70;98.30;;;;;;5034670;28;20115;-70
2021/06/14 02:19:28;;;;;;;9.70;7.43;;;14.60;98.30;;;;;;5034116;28;20041;-70
2021/06/14 02:21:54;;;;;;;15.10;8.40;;;14.60;98.30;;;;;;5034823;28;20160;-70
2021/06/14 02:24:20;;;;;;;11.23;7.22;;;14.60;98.20;;;;;;5034031;28;20390;-70
2021/06/14 02:26:48;;;;;;;9.50;7.38;;;14.60;98.10;;;;;;5034289;28;20063;-70
2021/06/14 02:29:15;;;;;;;9.07;7.00;;;14.60;98.10;;;;;;5033749;28;20428;-70
2021/06/14 02:31:41;;;;;;;12.55;7.40;;;14.50;98.00;;;;;;5034198;28;20042;-70
2021/06/14 02:34:08;;;;;;;12.07;7.35;;;14.40;97.90;;;;;;5034659;28;20052;-70
2021/06/14 02:36:35;;;;;;;10.90;7.55;;;14.40;97.90;;;;;;5034639;28;20037;-70
2021/06/14 02:39:11;;;;;;;11.75;7.35;;;14.40;97.90;;;;;;5033613;28;20044;-70
2021/06/14 02:41:37;;;;;;;11.25;8.25;;;14.30;98.00;;;;;;5033818;28;20037;-70
2021/06/14 02:44:05;;;;;;;11.07;7.32;;;14.30;98.10;;;;;;5033726;28;20490;-70
2021/06/14 02:46:37;;;;;;;15.70;7.97;;;14.30;98.10;;;;;;5034457;28;20041;-70
2021/06/14 02:49:04;;;;;;;13.52;7.80;;;14.20;98.20;;;;;;5033880;28;20046;-71
2021/06/14 02:51:31;;;;;;;16.02;7.97;;;14.20;98.20;;;;;;5033715;28;20041;-70
2021/06/14 02:54:05;;;;;;;12.07;8.15;;;14.20;98.30;;;;;;5033892;28;20052;-70
2021/06/14 02:56:37;;;;;;;11.93;7.55;;;14.20;98.30;;;;;;5034275;28;20072;-70
2021/06/14 02:59:05;;;;;;;12.13;7.43;;;14.20;98.30;;;;;;5033624;28;20422;-70
2021/06/14 03:01:34;;;;;;;11.65;7.95;;;14.10;98.30;;;;;;5033130;28;20065;-70
2021/06/14 03:04:03;;;;;;;11.40;8.25;;;14.10;98.40;;;;;;5033474;28;20512;-70
2021/06/14 03:06:29;;;;;;;13.00;8.13;;;14.00;98.40;;;;;;5033499;28;20047;-70
2021/06/14 03:08:56;;;;;;;13.00;7.68;;;14.00;98.50;;;;;;5033125;28;20116;-70
2021/06/14 03:11:28;;;;;;;12.40;8.70;;;14.00;98.50;;;;;;5033354;28;20042;-70
2021/06/14 03:13:56;;;;;;;12.13;8.82;;;14.00;98.60;;;;;;5033231;28;20049;-70
2021/06/14 03:16:24;;;;;;;11.73;8.27;;;14.00;98.70;;;;;;5033362;28;20037;-70
2021/06/14 03:18:51;;;;;;;13.57;9.40;;;14.00;98.80;;;;;;5032940;28;20069;-70
2021/06/14 03:21:19;;;;;;;12.73;8.30;;;14.00;98.90;;;;;;5033700;28;20075;-70
2021/06/14 03:23:52;;;;;;;19.02;8.75;;;14.00;98.90;;;;;;5034009;28;20037;-70
2021/06/14 03:26:19;;;;;;;14.18;7.88;;;14.00;98.90;;;;;;5034107;28;20038;-70
2021/06/14 03:28:47;;;;;;;17.15;8.50;;;14.00;98.90;;;;;;5033041;28;20110;-71
2021/06/14 03:31:15;;;;;;;15.80;9.23;;;14.10;98.90;;;;;;5033203;28;20042;-70
2021/06/14 03:33:47;;;;;;;14.65;9.15;;;14.00;98.80;;;;;;5033379;28;20136;-70
2021/06/14 03:36:15;;;;;;;15.15;9.13;;;14.00;98.90;;;;;;5033197;28;20062;-70
2021/06/14 03:38:44;;;;;;;11.77;8.90;;;14.00;98.90;;;;;;5033010;28;20116;-70
2021/06/14 03:41:10;;;;;;;13.93;9.15;;;14.00;98.80;;;;;;5033165;28;20042;-70
2021/06/14 03:43:36;;;;;;;14.52;9.10;;;14.10;98.90;;;;;;5033009;28;20038;-70
2021/06/14 03:46:02;;;;;;;16.05;9.00;;;14.10;98.80;;;;;;5033649;28;20489;-70
2021/06/14 03:48:28;;;;;;;15.95;8.32;;;14.10;98.80;;;;;;5032812;28;20042;-70
2021/06/14 03:50:54;;;;;;;14.52;8.68;;;14.10;98.80;;;;;;5033399;28;20509;-70
2021/06/14 03:53:32;;;;;;;13.50;9.43;;;14.10;98.90;;;;;;5033200;28;20125;-70
2021/06/14 03:56:06;;;;;;;11.68;8.38;;;14.10;98.80;;;;;;5033619;28;20108;-70
2021/06/14 03:58:31;;;;;;;;;;;14.10;98.80;;;;;;5033169;28;20040;-71
2021/06/14 04:00:58;;;;;;;15.77;8.98;;;14.10;99.30;;;;;;5032926;28;20328;-70
2021/06/14 04:03:27;;;;;;;18.90;9.50;;;14.10;99.00;;;;;;5032912;28;20095;-70
2021/06/14 04:05:57;;;;;;;14.13;8.25;;;14.20;99.00;;;;;;5032811;28;20080;-70
2021/06/14 04:08:23;;;;;;;17.08;9.68;;;14.10;98.90;;;;;;5033288;28;20038;-70
2021/06/14 04:10:49;;;;;;;15.52;9.32;;;14.10;98.90;;;;;;5032567;28;20175;-70
2021/06/14 04:13:15;;;;;;;15.20;9.02;;;14.10;98.90;;;;;;5034245;28;20056;-70
2021/06/14 04:15:41;;;;;;;17.58;9.15;;;14.20;98.80;;;;;;5036952;28;20485;-70
2021/06/14 04:18:07;;;;;;;13.45;8.98;;;14.30;98.80;;;;;;5036700;28;20038;-70
2021/06/14 04:20:33;;;;;;;17.55;9.10;;;14.30;98.80;;;;;;5036296;28;20042;-70
2021/06/14 04:22:58;;;;;;;15.73;9.52;;;14.30;98.70;;;;;;5037206;28;20398;-70
2021/06/14 04:25:25;;;;;;;15.88;9.02;;;14.30;98.80;;;;;;5035241;28;20033;-70
2021/06/14 04:27:51;;;;;;;18.27;9.20;;;14.40;98.80;;;;;;5036915;28;20049;-70
2021/06/14 04:30:17;;;;;;;14.85;9.23;;;14.40;98.80;;;;;;5034779;28;20034;-70
2021/06/14 04:32:44;;;;;;;13.70;9.13;;;14.50;98.70;;;;;;5036343;28;20045;-70
2021/06/14 04:35:11;;;;;;;14.65;9.68;;;14.50;98.70;;;;;;5036275;28;20041;-69
2021/06/14 04:37:37;;;;;;;15.00;9.10;;;14.60;98.80;;;;;;5036201;28;20037;-70
2021/06/14 04:40:07;;;;;;;16.17;9.88;;;14.60;98.80;;;;;;5034653;28;20358;-70
2021/06/14 04:42:33;;;;;;;14.82;9.02;;;14.70;98.80;;;;;;5036677;28;20041;-70
2021/06/14 04:44:59;;;;;;;14.07;8.88;;;14.80;98.70;;;;;;5036363;28;20041;-70
2021/06/14 04:47:26;;;;;;;13.48;8.60;;;15.00;98.60;;;;;;5035496;28;20388;-70
2021/06/14 04:49:51;;;;;;;18.17;9.52;;;15.20;98.30;;;;;;5035770;28;20124;-70
2021/06/14 04:52:17;;;;;;;13.85;8.73;;;15.40;97.90;;;;;;5035899;28;20120;-70
2021/06/14 04:54:43;;;;;;;15.35;8.68;;;15.60;97.50;;;;;;5035963;28;20038;-70
2021/06/14 04:57:09;;;;;;;11.55;8.00;;;15.90;97.30;;;;;;5036107;28;20120;-70
2021/06/14 04:59:34;;;;;;;15.32;9.25;;;16.10;97.00;;;;;;5035437;28;20091;-70
2021/06/14 05:02:00;;;;;;;11.57;8.05;;;16.30;96.80;;;;;;5035621;28;20079;-70
2021/06/14 05:04:26;;;;;;;13.73;9.35;;;16.50;96.40;;;;;;5036300;28;20069;-70
2021/06/14 05:06:52;;;;;;;11.90;7.68;;;16.90;96.10;;;;;;5036305;28;20486;-70
2021/06/14 05:09:18;;;;;;;12.50;8.20;;;17.10;95.70;;;;;;5035407;28;20124;-70
2021/06/14 05:11:45;;;;;;;16.58;8.85;;;17.50;95.30;;;;;;5035533;28;20049;-70
2021/06/14 05:14:10;;;;;;;13.15;8.10;;;17.70;94.80;;;;;;5035621;28;20116;-70
2021/06/14 05:16:36;;;;;;;14.65;8.63;;;18.00;94.60;;;;;;5035907;28;20063;-70
2021/06/14 05:19:02;;;;;;;14.23;8.80;;;18.20;94.10;;;;;;5035258;28;20505;-70
2021/06/14 05:21:27;;;;;;;12.45;8.07;;;18.60;93.60;;;;;;5042793;28;20037;-70
2021/06/14 05:23:53;;;;;;;14.82;8.27;;;18.80;93.40;;;;;;5054742;28;20126;-70
2021/06/14 05:26:19;;;;;;;16.55;7.85;;;19.10;92.80;;;;;;5054083;28;20045;-70
2021/06/14 05:28:45;;;;;;;11.48;7.07;;;19.30;92.50;;;;;;5054807;28;20033;-70
2021/06/14 05:31:11;;;;;;;12.93;7.80;;;19.50;92.10;;;;;;5055010;28;20037;-72
2021/06/14 05:33:37;;;;;;;14.60;7.97;;;19.80;91.70;;;;;;5055393;28;20051;-70
2021/06/14 05:36:03;;;;;;;10.10;7.18;;;20.20;91.30;;;;;;5055341;28;20083;-71
2021/06/14 05:38:29;;;;;;;13.40;7.47;;;20.50;90.80;;;;;;5055809;28;20396;-72
2021/06/14 05:40:55;;;;;;;11.18;7.25;;;20.80;90.00;;;;;;5056307;28;20120;-70
2021/06/14 05:43:21;;;;;;;10.90;7.75;;;21.00;88.60;;;;;;5055070;28;20043;-70
2021/06/14 05:45:46;;;;;;;15.13;6.85;;;21.30;87.10;;;;;;5055476;28;20037;-70
2021/06/14 05:48:13;;;;;;;11.40;6.65;;;21.50;86.20;;;;;;5054813;28;20048;-70
2021/06/14 05:50:39;;;;;;;10.38;6.13;;;21.80;85.40;;;;;;5054980;28;20470;-70
2021/06/14 05:53:04;;;;;;;7.68;5.95;;;22.20;84.60;;;;;;5054655;28;20040;-70
2021/06/14 05:55:30;;;;;;;11.45;6.20;;;22.30;81.70;;;;;;5054671;28;20033;-70
2021/06/14 05:57:56;;;;;;;14.52;6.05;;;22.40;81.00;;;;;;5054683;28;20521;-70
2021/06/14 06:00:22;;;;;;;8.82;5.53;;;22.60;79.30;;;;;;5054740;28;20481;-71
2021/06/14 06:02:48;;;;;;;12.50;6.55;;;22.90;78.50;;;;;;5055152;28;20120;-70
2021/06/14 06:05:14;;;;;;;8.85;5.50;;;23.00;77.70;;;;;;5054984;28;20113;-70
2021/06/14 06:07:40;;;;;;;10.27;6.53;;;23.40;77.60;;;;;;5053333;28;20041;-70
2021/06/14 06:10:08;;;;;;;8.75;4.93;;;23.60;77.10;;;;;;5054436;28;20048;-70
2021/06/14 06:12:35;;;;;;;9.25;5.30;;;23.80;76.10;;;;;;5054343;28;20045;-71
2021/06/14 06:15:03;;;;;;;8.00;4.82;;;24.00;74.90;;;;;;5054777;28;20093;-70
2021/06/14 06:17:29;;;;;;;9.45;4.35;;;24.10;73.90;;;;;;5054779;28;20036;-71
2021/06/14 06:19:56;;;;;;;9.18;5.28;;;24.30;73.00;;;;;;5053835;28;20041;-71
2021/06/14 06:22:21;;;;;;;7.85;4.60;;;24.40;71.90;;;;;;5053072;28;20045;-71
2021/06/14 06:24:47;;;;;;;8.30;4.85;;;24.50;70.90;;;;;;5054269;28;20044;-71
2021/06/14 06:27:12;;;;;;;8.00;5.03;;;24.60;70.90;;;;;;5054249;28;20049;-71
2021/06/14 06:29:38;;;;;;;9.93;4.90;;;24.80;70.90;;;;;;5053442;28;20087;-71
2021/06/14 06:32:04;;;;;;;10.65;4.47;;;24.90;69.70;;;;;;5054212;28;20500;-71
2021/06/14 06:34:30;;;;;;;8.45;4.20;;;25.10;69.10;;;;;;5054571;28;20047;-71
2021/06/14 06:36:56;;;;;;;8.32;4.43;;;25.20;68.90;;;;;;5054106;28;20033;-71
2021/06/14 06:39:21;;;;;;;10.00;4.43;;;25.40;69.20;;;;;;5053440;28;20439;-71
2021/06/14 06:41:47;;;;;;;7.10;4.10;;;25.50;67.80;;;;;;5054127;28;20048;-71
2021/06/14 06:44:13;;;;;;;7.45;4.20;;;25.70;67.10;;;;;;5054025;28;20457;-71
2021/06/14 06:46:39;;;;;;;6.97;3.83;;;25.60;66.10;;;;;;5053834;28;20116;-71
2021/06/14 06:49:05;;;;;;;6.43;3.83;;;25.70;65.20;;;;;;5052231;28;20045;-71
2021/06/14 06:51:31;;;;;;;7.05;3.78;;;25.90;64.60;;;;;;5053913;28;20044;-71
2021/06/14 06:54:12;;;;;;;7.78;4.30;;;25.90;64.40;;;;;;5053631;28;20040;-71
2021/06/14 06:56:46;;;;;;;7.60;3.80;;;25.70;63.10;;;;;;5054026;28;20108;-71
2021/06/14 06:59:11;;;;;;;8.50;3.97;;;25.90;61.40;;;;;;5053150;28;20041;-71
2021/06/14 07:01:37;;;;;;;7.10;4.43;;;26.00;61.60;;;;;;5054127;28;20106;-71
2021/06/14 07:04:04;;;;;;;8.43;4.13;;;26.20;63.30;;;;;;5053963;28;20045;-70
2021/06/14 07:06:30;;;;;;;9.15;4.30;;;26.20;61.30;;;;;;5053403;28;20033;-70
2021/06/14 07:08:57;;;;;;;8.18;4.22;;;26.30;61.20;;;;;;5053492;28;20037;-71
2021/06/14 07:11:24;;;;;;;8.10;4.22;;;26.40;60.80;;;;;;5053382;28;20412;-71
2021/06/14 07:13:50;;;;;;;8.93;4.00;;;26.60;60.40;;;;;;5052243;28;20047;-71
2021/06/14 07:16:16;;;;;;;5.57;3.63;;;26.60;59.90;;;;;;5053335;28;20045;-71
2021/06/14 07:18:41;;;;;;;9.43;4.68;;;26.50;58.10;;;;;;5052902;28;20105;-71
2021/06/14 07:21:07;;;;;;;6.88;3.90;;;26.60;57.70;;;;;;5053167;28;20036;-71
2021/06/14 07:23:33;;;;;;;10.85;4.07;;;26.50;57.50;;;;;;5053173;28;20041;-70
2021/06/14 07:25:58;;;;;;;9.43;4.70;;;26.50;58.10;;;;;;5053266;28;20048;-70
2021/06/14 07:28:24;;;;;;;12.77;4.72;;;26.60;59.30;;;;;;5053073;28;20078;-71
2021/06/14 07:30:49;;;;;;;10.05;4.43;;;26.80;58.60;;;;;;5053183;28;20127;-71
2021/06/14 07:33:15;;;;;;;7.68;4.25;;;26.90;58.10;;;;;;5053188;28;20489;-71
2021/06/14 07:35:41;;;;;;;8.68;4.30;;;27.10;56.70;;;;;;5053513;28;20037;-70
2021/06/14 07:38:07;;;;;;;8.57;4.20;;;27.10;55.90;;;;;;5053658;28;20107;-71
2021/06/14 07:40:32;;;;;;;8.40;4.07;;;27.20;58.30;;;;;;5052156;28;20140;-71
2021/06/14 07:42:58;;;;;;;7.32;4.20;;;27.30;56.40;;;;;;5052955;28;20037;-71
2021/06/14 07:45:25;;;;;;;8.07;4.22;;;27.50;54.70;;;;;;5053182;28;20143;-71
2021/06/14 07:47:54;;;;;;;7.72;4.07;;;27.70;56.50;;;;;;5055763;28;20033;-71
2021/06/14 07:50:21;;;;;;;5.55;3.35;;;27.90;54.90;;;;;;5056811;28;20061;-71
2021/06/14 07:52:46;;;;;;;11.52;4.38;;;28.10;54.40;;;;;;5057188;28;20037;-71
2021/06/14 07:55:12;;;;;;;7.05;3.63;;;27.90;53.20;;;;;;5057236;28;20561;-70
2021/06/14 07:57:39;;;;;;;9.10;4.63;;;27.70;52.70;;;;;;5057568;28;20055;-71
2021/06/14 08:00:08;;;;;;;6.90;3.65;;;27.90;52.80;;;;;;5056639;28;20095;-70
2021/06/14 08:02:35;;;;;;;6.85;4.13;;;28.10;52.90;;;;;;5057005;28;20036;-71
2021/06/14 08:05:02;;;;;;;6.45;3.63;;;28.10;52.20;;;;;;5055902;28;20056;-71
2021/06/14 08:07:28;;;;;;;6.75;3.50;;;28.20;52.50;;;;;;5056697;28;20041;-70
2021/06/14 08:10:02;;;;;;;7.35;4.65;;;27.90;50.90;;;;;;5056177;28;20071;-70
2021/06/14 08:12:29;;;;;;;6.30;4.00;;;28.10;51.80;;;;;;5057324;28;20377;-70
2021/06/14 08:14:54;;;;;;;6.05;3.72;;;28.20;52.90;;;;;;5057147;28;20037;-71
2021/06/14 08:17:20;;;;;;;7.22;3.65;;;28.40;54.80;;;;;;5056530;28;20056;-71
2021/06/14 08:19:53;;;;;;;17.73;4.65;;;28.50;52.10;;;;;;5056087;28;20112;-70
2021/06/14 08:25:13;;;;;;;10.73;4.45;;;28.40;50.50;;;;;;5037002;28;20068;-71
2021/06/14 08:27:44;;;;;;;6.95;3.65;;;28.50;52.50;;;;;;5056904;28;20037;-71
2021/06/14 08:30:19;;;;;;;7.55;4.18;;;28.40;50.20;;;;;;5055862;28;20061;-71
2021/06/14 08:32:46;;;;;;;8.18;3.72;;;28.50;50.30;;;;;;5056808;28;20516;-71
2021/06/14 08:35:14;;;;;;;7.90;3.55;;;28.30;51.30;;;;;;5056329;28;20045;-71
2021/06/14 08:37:40;;;;;;;9.50;3.90;;;28.30;51.50;;;;;;5055318;28;20470;-70
2021/06/14 08:40:08;;;;;;;8.80;3.97;;;28.20;50.30;;;;;;5055819;28;20059;-70
2021/06/14 08:42:34;;;;;;;6.72;2.95;;;28.30;49.40;;;;;;5055862;28;20037;-71
2021/06/14 08:45:00;;;;;;;9.27;3.67;;;28.50;51.70;;;;;;5056422;28;20112;-70
2021/06/14 08:47:28;;;;;;;7.78;3.80;;;28.20;51.70;;;;;;5056733;28;20128;-70
2021/06/14 08:49:55;;;;;;;8.43;3.72;;;28.10;51.90;;;;;;5055796;28;20043;-70
2021/06/14 08:52:22;;;;;;;6.45;3.70;;;28.10;53.00;;;;;;5056104;28;20461;-71
2021/06/14 08:54:48;;;;;;;8.05;3.70;;;28.50;52.40;;;;;;5056082;28;20098;-71
2021/06/14 08:57:14;;;;;;;7.15;3.72;;;28.10;51.40;;;;;;5056188;28;20037;-70
2021/06/14 08:59:41;;;;;;;6.25;3.60;;;27.90;50.70;;;;;;5054610;28;20041;-70
2021/06/14 09:02:07;;;;;;;6.78;3.40;;;27.60;51.50;;;;;;5056489;28;20037;-71
2021/06/14 09:04:33;;;;;;;8.77;3.67;;;27.70;52.60;;;;;;5055584;28;20401;-70
2021/06/14 09:07:00;;;;;;;7.20;3.50;;;27.70;50.90;;;;;;5055787;28;20048;-71
2021/06/14 09:09:31;;;;;;;9.60;3.75;;;27.90;53.90;;;;;;5055596;28;20048;-71
2021/06/14 09:12:02;;;;;;;7.20;4.03;;;27.90;52.20;;;;;;5055995;28;20048;-71
2021/06/14 09:14:35;;;;;;;8.27;4.03;;;27.90;52.70;;;;;;5055969;28;20041;-70
2021/06/14 09:17:12;;;;;;;6.38;3.78;;;27.50;51.30;;;;;;5056156;28;20056;-70
2021/06/14 09:19:49;;;;;;;9.02;3.75;;;27.80;53.80;;;;;;5055233;28;20040;-71
2021/06/14 09:22:20;;;;;;;9.40;4.30;;;28.10;55.20;;;;;;5055436;28;20044;-71
2021/06/14 09:24:55;;;;;;;8.63;3.50;;;28.10;54.00;;;;;;5055903;28;20113;-70
2021/06/14 09:27:27;;;;;;;10.57;4.18;;;28.20;53.00;;;;;;5055407;28;20040;-70
2021/06/14 09:29:52;;;;;;;7.03;3.80;;;28.10;52.20;;;;;;5055282;28;20065;-71
2021/06/14 09:32:18;;;;;;;11.32;4.22;;;28.10;53.60;;;;;;5055442;28;20319;-70
2021/06/14 09:34:46;;;;;;;7.88;4.00;;;27.80;52.30;;;;;;5055087;28;20045;-71
2021/06/14 09:37:16;;;;;;;9.88;3.58;;;28.20;55.70;;;;;;5055240;28;20083;-71
2021/06/14 09:39:46;;;;;;;7.72;3.88;;;28.30;56.40;;;;;;5054485;28;20494;-71
2021/06/14 09:42:27;;;;;;;8.10;4.57;;;28.30;54.10;;;;;;5055568;28;20068;-70
2021/06/14 09:45:01;;;;;;;8.45;4.00;;;28.20;53.80;;;;;;5055206;28;20480;-70
2021/06/14 09:47:29;;;;;;;9.80;4.20;;;27.90;51.40;;;;;;5055039;28;20115;-70
2021/06/14 09:50:03;;;;;;;7.55;3.50;;;27.70;51.60;;;;;;5054614;28;20040;-70
2021/06/14 09:52:29;;;;;;;9.23;3.95;;;27.80;52.90;;;;;;5054894;28;20040;-71
2021/06/14 09:55:06;;;;;;;10.40;4.25;;;27.90;53.80;;;;;;5054874;28;20037;-70
2021/06/14 09:57:32;;;;;;;12.13;4.32;;;28.00;53.30;;;;;;5055349;28;20119;-71
2021/06/14 10:00:14;;;;;;;8.07;3.70;;;27.80;54.50;;;;;;5054427;28;20064;-71
2021/06/14 10:02:40;;;;;;;12.27;3.87;;;28.20;56.00;;;;;;5055502;28;20064;-70
2021/06/14 10:05:16;;;;;;;6.78;3.15;;;27.80;53.80;;;;;;5054711;28;20043;-70
2021/06/14 10:07:52;;;;;;;7.80;3.80;;;27.70;52.40;;;;;;5015218;28;20045;-70
2021/06/14 10:10:27;;;;;;;10.90;3.53;;;27.40;51.10;;;;;;5014434;28;20088;-70
2021/06/14 10:12:56;;;;;;;8.30;4.20;;;27.40;53.20;;;;;;5014874;28;20117;-70
2021/06/14 10:15:37;;;;;;;8.73;3.10;;;27.30;53.20;;;;;;5014765;28;20073;-70
2021/06/14 10:18:04;;;;;;;7.35;3.70;;;27.30;54.70;;;;;;5014710;28;20490;-70
2021/06/14 10:20:31;;;;;;;8.02;4.00;;;27.30;54.00;;;;;;5014152;28;20045;-71
2021/06/14 10:23:01;;;;;;;8.18;4.50;;;27.50;55.40;;;;;;5014783;28;20449;-70
2021/06/14 10:25:27;;;;;;;5.65;3.85;;;27.50;54.10;;;;;;5014226;28;20391;-70
2021/06/14 10:27:53;;;;;;;7.45;4.18;;;27.70;54.60;;;;;;5014076;28;20057;-72
2021/06/14 10:30:22;;;;;;;10.18;4.10;;;27.70;55.90;;;;;;5014139;28;20470;-70
2021/06/14 10:32:48;;;;;;;6.30;3.53;;;27.60;55.60;;;;;;5014111;28;20053;-71
2021/06/14 10:35:16;;;;;;;9.07;4.00;;;27.40;55.10;;;;;;5014198;28;20100;-71
2021/06/14 10:37:48;;;;;;;9.30;4.03;;;27.50;55.70;;;;;;5014664;28;20046;-71
2021/06/14 10:40:25;;;;;;;10.90;4.22;;;27.20;56.00;;;;;;5013946;28;20046;-71
2021/06/14 10:42:51;;;;;;;13.63;5.05;;;27.20;55.30;;;;;;5013043;28;20382;-70
2021/06/14 10:45:22;;;;;;;7.95;3.97;;;27.10;55.70;;;;;;5014359;28;20045;-70
2021/06/14 10:47:48;;;;;;;8.32;4.10;;;26.90;54.80;;;;;;5014040;28;20512;-70
2021/06/14 10:50:18;;;;;;;9.93;4.10;;;26.90;55.30;;;;;;5014264;28;20042;-71
2021/06/14 10:52:47;;;;;;;9.23;4.18;;;26.80;56.30;;;;;;5014640;28;20052;-70
2021/06/14 10:55:16;;;;;;;13.32;5.53;;;26.70;55.30;;;;;;5014309;28;20038;-70
2021/06/14 10:57:42;;;;;;;7.82;4.22;;;26.80;55.60;;;;;;5014066;28;20141;-71
2021/06/14 11:00:23;;;;;;;13.98;4.68;;;26.80;56.80;;;;;;5012425;28;20088;-70
2021/06/14 11:02:58;;;;;;;7.28;4.05;;;26.80;57.70;;;;;;5013198;28;20137;-70
2021/06/14 11:05:57;;;;;;;6.63;3.60;;;26.80;56.60;;;;;;5013700;28;20045;-70
2021/06/14 11:08:24;;;;;;;10.02;3.65;;;26.80;56.40;;;;;;5012755;28;20382;-71
2021/06/14 11:10:57;;;;;;;9.43;4.20;;;26.70;56.50;;;;;;5013454;28;20038;-71
2021/06/14 11:13:23;;;;;;;8.10;3.85;;;26.70;58.50;;;;;;5014298;28;20038;-69
2021/06/14 11:15:57;;;;;;;8.40;3.20;;;26.70;57.00;;;;;;5012790;28;20048;-70
2021/06/14 11:18:31;;;;;;;8.90;3.78;;;26.60;57.00;;;;;;5013706;28;20486;-71
2021/06/14 11:21:17;;;;;;;6.15;3.53;;;26.70;58.10;;;;;;5013841;28;20038;-71
2021/06/14 11:23:45;;;;;;;8.85;3.60;;;26.80;60.00;;;;;;5013466;28;20044;-69
2021/06/14 11:26:12;;;;;;;8.52;3.53;;;26.80;58.90;;;;;;5013895;28;20042;-70
2021/06/14 11:28:47;;;;;;;8.43;3.58;;;26.80;61.10;;;;;;5013278;28;20041;-71
2021/06/14 11:31:21;;;;;;;6.30;3.83;;;26.90;61.60;;;;;;5013576;28;20042;-70
2021/06/14 11:33:49;;;;;;;9.98;4.13;;;27.00;61.30;;;;;;5014205;28;20049;-69
2021/06/14 11:36:19;;;;;;;9.25;3.95;;;26.80;59.50;;;;;;5013954;28;20088;-70
2021/06/14 11:38:45;;;;;;;7.40;4.05;;;27.00;61.10;;;;;;5013771;28;20069;-70
2021/06/14 11:41:11;;;;;;;11.57;4.45;;;27.00;59.20;;;;;;5013522;28;20046;-70
2021/06/14 11:43:37;;;;;;;6.75;4.00;;;27.00;59.40;;;;;;5013474;28;20042;-70
2021/06/14 11:46:17;;;;;;;8.70;3.88;;;27.00;60.20;;;;;;5013726;28;20046;-70
2021/06/14 11:48:47;;;;;;;7.90;4.50;;;26.90;58.80;;;;;;5013656;28;20053;-71
2021/06/14 11:51:18;;;;;;;10.13;4.18;;;26.80;58.90;;;;;;5013346;28;20134;-69
2021/06/14 11:53:57;;;;;;;8.52;4.05;;;26.80;57.70;;;;;;5013565;28;20045;-69
2021/06/14 11:56:25;;;;;;;10.68;4.25;;;26.60;57.40;;;;;;5013634;28;20049;-70
2021/06/14 11:58:52;;;;;;;7.75;3.50;;;26.60;57.60;;;;;;5012800;28;20112;-70
2021/06/14 12:01:27;;;;;;;8.43;3.72;;;26.80;57.80;;;;;;5013039;28;20045;-70
2021/06/14 12:03:57;;;;;;;6.68;3.50;;;26.80;57.80;;;;;;5011947;28;20038;-70
2021/06/14 12:06:23;;;;;;;6.57;3.22;;;26.80;59.50;;;;;;5013448;28;20129;-69
2021/06/14 12:08:49;;;;;;;7.43;3.05;;;26.70;57.50;;;;;;5013091;28;20042;-70
2021/06/14 12:11:15;;;;;;;8.02;3.50;;;26.70;56.90;;;;;;5013287;28;20038;-69
2021/06/14 12:13:41;;;;;;;9.00;3.83;;;26.70;55.10;;;;;;5013430;28;20062;-70
2021/06/14 12:16:07;;;;;;;7.03;3.45;;;26.70;58.00;;;;;;5013501;28;20042;-70
2021/06/14 12:18:33;;;;;;;8.63;3.83;;;26.70;56.80;;;;;;5012845;28;20065;-70
2021/06/14 12:21:09;;;;;;;6.60;4.32;;;26.70;58.10;;;;;;5013557;28;20073;-70
2021/06/14 12:23:40;;;;;;;6.15;3.92;;;26.70;61.70;;;;;;5013046;28;20046;-70
2021/06/14 12:26:11;;;;;;;8.43;4.07;;;26.90;60.90;;;;;;5013148;28;20038;-70
2021/06/14 12:28:39;;;;;;;7.18;4.05;;;26.90;60.90;;;;;;5013014;28;20445;-70
2021/06/14 12:31:10;;;;;;;9.40;4.32;;;26.90;59.20;;;;;;5012767;28;20533;-70
2021/06/14 12:33:38;;;;;;;7.97;3.97;;;27.00;59.60;;;;;;5013448;28;20042;-70
2021/06/14 12:36:05;;;;;;;5.93;3.90;;;26.90;58.70;;;;;;5016755;28;20046;-70
2021/06/14 12:38:32;;;;;;;7.32;4.07;;;26.90;58.10;;;;;;5016549;28;20061;-70
2021/06/14 12:40:59;;;;;;;8.65;4.40;;;26.80;59.10;;;;;;5016618;28;20077;-70
2021/06/14 12:43:30;;;;;;;14.27;4.60;;;26.80;58.50;;;;;;5017010;28;20541;-70
2021/06/14 12:45:58;;;;;;;6.80;4.30;;;26.80;59.10;;;;;;5016322;28;20478;-70
2021/06/14 12:48:24;;;;;;;9.40;4.60;;;26.80;60.90;;;;;;5016637;28;20556;-70
2021/06/14 12:50:52;;;;;;;9.93;4.43;;;26.90;61.60;;;;;;5016216;28;20048;-70